createdAt,value
2022-12-20T00:02:47.387Z,17.30
2022-12-20T00:05:49.786Z,17.40
2022-12-20T00:08:57.926Z,17.30
2022-12-20T00:12:00.380Z,17.40
2022-12-20T00:15:03.026Z,17.40
2022-12-20T00:18:05.668Z,17.30
2022-12-20T00:21:09.976Z,17.30
2022-12-20T00:24:13.333Z,17.30
2022-12-20T00:27:15.682Z,17.30
2022-12-20T00:30:18.127Z,17.30
2022-12-20T00:33:20.317Z,17.30
2022-12-20T00:36:24.824Z,17.30
2022-12-20T00:39:27.331Z,17.30
2022-12-20T00:42:29.762Z,17.40
2022-12-20T00:45:32.085Z,17.40
2022-12-20T00:48:34.813Z,17.40
2022-12-20T00:51:37.017Z,17.40
2022-12-20T00:54:41.803Z,17.40
2022-12-20T00:57:44.184Z,17.40
2022-12-20T01:00:54.039Z,17.40
2022-12-20T01:03:58.723Z,17.40
2022-12-20T01:07:02.693Z,17.40
2022-12-20T01:10:05.437Z,17.40
2022-12-20T01:13:07.469Z,17.50
2022-12-20T01:16:22.180Z,17.50
2022-12-20T01:19:24.885Z,17.50
2022-12-20T01:22:27.426Z,17.40
2022-12-20T01:25:29.450Z,17.50
2022-12-20T01:28:32.807Z,17.50
2022-12-20T01:31:36.043Z,17.50
2022-12-20T01:34:38.826Z,17.50
2022-12-20T01:37:40.878Z,17.50
2022-12-20T01:40:42.900Z,17.50
2022-12-20T01:43:57.212Z,17.50
2022-12-20T01:47:00.529Z,17.50
2022-12-20T01:50:04.477Z,17.50
2022-12-20T01:53:06.863Z,17.50
2022-12-20T01:56:10.779Z,17.50
2022-12-20T01:59:14.174Z,17.50
2022-12-20T02:02:17.124Z,17.50
2022-12-20T02:05:21.472Z,17.50
2022-12-20T02:08:24.868Z,17.50
2022-12-20T02:12:05.128Z,17.50
2022-12-20T02:16:10.010Z,17.50
2022-12-20T02:19:33.107Z,17.40
2022-12-20T02:23:31.784Z,17.30
2022-12-20T02:27:11.096Z,17.20
2022-12-20T02:30:24.321Z,17.10
2022-12-20T02:33:28.708Z,17.10
2022-12-20T02:36:30.927Z,17.10
2022-12-20T02:39:36.109Z,17.10
2022-12-20T02:42:38.342Z,17.10
2022-12-20T02:45:40.831Z,17.20
2022-12-20T02:48:43.188Z,17.20
2022-12-20T02:51:49.536Z,17.20
2022-12-20T02:54:51.740Z,17.30
2022-12-20T02:58:03.016Z,17.40
2022-12-20T03:01:14.532Z,17.40
2022-12-20T03:04:19.112Z,17.50
2022-12-20T03:07:21.701Z,17.60
2022-12-20T03:10:23.901Z,17.60
2022-12-20T03:13:26.663Z,17.70
2022-12-20T03:16:28.853Z,17.70
2022-12-20T03:19:32.460Z,17.70
2022-12-20T03:22:35.236Z,17.70
2022-12-20T03:25:38.389Z,17.70
2022-12-20T03:28:40.542Z,17.70
2022-12-20T03:31:42.702Z,17.70
2022-12-20T03:34:44.896Z,17.70
2022-12-20T03:37:47.125Z,17.70
2022-12-20T03:40:49.563Z,17.70
2022-12-20T03:43:53.028Z,17.80
2022-12-20T03:46:55.093Z,17.70
2022-12-20T03:49:57.540Z,17.70
2022-12-20T03:52:59.783Z,17.80
2022-12-20T03:56:01.975Z,17.70
2022-12-20T03:59:04.566Z,17.80
2022-12-20T04:02:06.715Z,17.70
2022-12-20T04:05:11.375Z,17.70
2022-12-20T04:08:13.302Z,17.80
2022-12-20T04:11:18.578Z,17.70
2022-12-20T04:14:20.780Z,17.80
2022-12-20T04:17:22.885Z,17.80
2022-12-20T04:20:25.161Z,17.80
2022-12-20T04:23:27.450Z,17.80
2022-12-20T04:26:29.902Z,17.80
2022-12-20T04:29:32.638Z,17.80
2022-12-20T04:32:34.717Z,17.80
2022-12-20T04:35:37.988Z,17.80
2022-12-20T04:38:40.377Z,17.80
2022-12-20T04:41:43.215Z,17.70
2022-12-20T04:44:45.338Z,17.70
2022-12-20T04:47:47.590Z,17.70
2022-12-20T04:50:51.172Z,17.70
2022-12-20T04:53:54.087Z,17.70
2022-12-20T04:56:57.282Z,17.70
2022-12-20T04:59:59.465Z,17.70
2022-12-20T05:03:01.960Z,17.70
2022-12-20T05:06:04.792Z,17.70
2022-12-20T05:09:07.003Z,17.70
2022-12-20T05:12:09.201Z,17.70
2022-12-20T05:15:20.359Z,17.70
2022-12-20T05:18:27.243Z,17.70
2022-12-20T05:21:47.827Z,17.70
2022-12-20T05:25:08.519Z,17.70
2022-12-20T05:28:10.927Z,17.70
2022-12-20T05:31:15.596Z,17.70
2022-12-20T05:34:18.069Z,17.70
2022-12-20T05:37:21.950Z,17.70
2022-12-20T05:40:24.422Z,17.70
2022-12-20T05:43:26.844Z,17.70
2022-12-20T05:46:30.481Z,17.70
2022-12-20T05:49:32.767Z,17.70
2022-12-20T05:52:34.787Z,17.80
2022-12-20T05:55:37.136Z,17.70
2022-12-20T05:58:40.885Z,17.70
2022-12-20T06:01:43.044Z,17.80
2022-12-20T06:04:45.348Z,17.80
2022-12-20T06:07:50.702Z,17.80
2022-12-20T06:10:53.566Z,17.80
2022-12-20T06:13:56.690Z,17.80
2022-12-20T06:16:58.963Z,17.80
2022-12-20T06:20:01.098Z,17.80
2022-12-20T06:23:04.363Z,17.80
2022-12-20T06:26:09.340Z,17.90
2022-12-20T06:29:14.310Z,17.80
2022-12-20T06:32:16.646Z,17.90
2022-12-20T06:35:18.755Z,17.90
2022-12-20T06:38:20.869Z,17.90
2022-12-20T06:41:23.074Z,17.90
2022-12-20T06:44:25.218Z,17.90
2022-12-20T06:47:27.497Z,17.80
2022-12-20T06:50:29.700Z,17.80
2022-12-20T06:53:31.767Z,17.80
2022-12-20T06:56:40.876Z,17.90
2022-12-20T06:59:43.774Z,17.90
2022-12-20T07:02:46.119Z,17.90
2022-12-20T07:05:53.503Z,17.80
2022-12-20T07:08:56.373Z,17.80
2022-12-20T07:11:58.835Z,17.90
2022-12-20T07:15:01.154Z,17.90
2022-12-20T07:18:04.105Z,17.90
2022-12-20T07:21:06.942Z,17.90
2022-12-20T07:24:09.693Z,17.90
2022-12-20T07:27:12.039Z,17.90
2022-12-20T07:30:18.456Z,17.90
2022-12-20T07:33:20.598Z,17.90
2022-12-20T07:36:23.084Z,17.90
2022-12-20T07:39:25.902Z,17.90
2022-12-20T07:42:35.827Z,17.90
2022-12-20T07:45:40.543Z,17.90
2022-12-20T07:48:44.752Z,17.90
2022-12-20T07:51:51.571Z,17.90
2022-12-20T07:55:00.770Z,17.80
2022-12-20T07:58:06.951Z,17.80
2022-12-20T08:01:11.288Z,17.80
2022-12-20T08:04:19.529Z,17.80
2022-12-20T08:07:22.934Z,17.80
2022-12-20T08:10:26.334Z,17.80
2022-12-20T08:13:28.570Z,17.80
2022-12-20T08:16:31.327Z,17.70
2022-12-20T08:19:33.724Z,17.70
2022-12-20T08:22:36.138Z,17.70
2022-12-20T08:25:41.798Z,17.70
2022-12-20T08:28:44.968Z,17.70
2022-12-20T08:31:50.337Z,17.80
2022-12-20T08:34:53.751Z,17.80
2022-12-20T08:37:56.979Z,17.80
2022-12-20T08:41:08.389Z,17.70
2022-12-20T08:44:10.955Z,17.70
2022-12-20T08:47:13.326Z,17.70
2022-12-20T08:50:15.569Z,17.70
2022-12-20T08:53:17.898Z,17.70
2022-12-20T08:56:20.306Z,17.70
2022-12-20T08:59:22.607Z,17.70
2022-12-20T09:02:24.876Z,17.70
2022-12-20T09:05:27.469Z,17.70
2022-12-20T09:08:29.750Z,17.70
2022-12-20T09:11:31.883Z,17.70
2022-12-20T09:14:34.104Z,17.70
2022-12-20T09:17:36.136Z,17.70
2022-12-20T09:20:44.509Z,17.70
2022-12-20T09:23:54.620Z,17.70
2022-12-20T09:26:56.671Z,17.70
2022-12-20T09:29:59.056Z,17.70
2022-12-20T09:33:10.551Z,17.70
2022-12-20T09:36:14.966Z,17.70
2022-12-20T09:39:17.213Z,17.80
2022-12-20T09:42:24.656Z,17.70
2022-12-20T09:45:29.807Z,17.70
2022-12-20T09:48:38.788Z,17.70
2022-12-20T09:52:00.415Z,17.70
2022-12-20T09:55:28.131Z,17.80
2022-12-20T09:58:39.324Z,17.80
2022-12-20T10:01:46.268Z,17.90
2022-12-20T10:04:48.813Z,18.00
2022-12-20T10:08:06.101Z,18.00
2022-12-20T10:11:21.362Z,18.10
2022-12-20T10:14:35.591Z,18.20
2022-12-20T10:18:14.226Z,18.40
2022-12-20T10:21:47.622Z,18.50
2022-12-20T10:25:12.837Z,18.60
2022-12-20T10:28:17.125Z,18.70
2022-12-20T10:31:21.988Z,18.70
2022-12-20T10:34:24.108Z,18.80
2022-12-20T10:37:26.437Z,18.80
2022-12-20T10:41:10.113Z,18.90
2022-12-20T10:44:18.387Z,18.80
2022-12-20T10:47:40.713Z,18.90
2022-12-20T10:50:43.063Z,18.90
2022-12-20T10:53:59.057Z,18.90
2022-12-20T10:57:21.296Z,18.90
2022-12-20T11:00:33.724Z,18.90
2022-12-20T11:04:02.658Z,18.90
2022-12-20T11:07:25.957Z,19.00
2022-12-20T11:10:30.093Z,19.00
2022-12-20T11:13:32.208Z,19.10
2022-12-20T11:16:38.181Z,19.60
2022-12-20T11:20:17.966Z,20.60
2022-12-20T11:23:42.000Z,21.90
2022-12-20T11:27:02.309Z,22.50
2022-12-20T11:30:40.611Z,23.10
2022-12-20T11:33:48.728Z,23.50
2022-12-20T11:36:50.680Z,24.10
2022-12-20T11:40:20.111Z,24.80
2022-12-20T11:44:07.989Z,25.10
2022-12-20T11:47:23.740Z,25.30
2022-12-20T11:50:40.261Z,25.10
2022-12-20T11:54:00.549Z,24.40
2022-12-20T11:57:14.377Z,23.70
2022-12-20T12:00:25.474Z,23.00
2022-12-20T12:03:35.681Z,22.50
2022-12-20T12:06:53.631Z,22.10
2022-12-20T12:09:58.694Z,21.80
2022-12-20T12:13:11.333Z,21.60
2022-12-20T12:16:27.950Z,21.60
2022-12-20T12:19:31.372Z,21.50
2022-12-20T12:22:36.082Z,21.50
2022-12-20T12:25:38.179Z,21.50
2022-12-20T12:28:40.551Z,21.50
2022-12-20T12:31:54.389Z,21.40
2022-12-20T12:35:32.057Z,21.20
2022-12-20T12:39:12.122Z,21.10
2022-12-20T12:42:48.009Z,21.10
2022-12-20T12:45:59.748Z,21.10
2022-12-20T12:49:16.448Z,21.10
2022-12-20T12:52:55.534Z,21.20
2022-12-20T12:56:19.420Z,21.30
2022-12-20T12:59:20.261Z,21.20
2022-12-20T13:02:33.359Z,21.20
2022-12-20T13:05:36.302Z,21.20
2022-12-20T13:09:01.247Z,21.30
2022-12-20T13:12:23.093Z,21.30
2022-12-20T13:15:25.276Z,21.30
2022-12-20T13:18:28.164Z,21.50
2022-12-20T13:21:36.860Z,21.50
2022-12-20T13:24:48.787Z,21.70
2022-12-20T13:27:52.667Z,21.70
2022-12-20T13:31:04.782Z,21.60
2022-12-20T13:34:52.724Z,21.40
2022-12-20T13:38:02.375Z,21.40
2022-12-20T13:41:18.175Z,21.20
2022-12-20T13:44:47.630Z,21.00
2022-12-20T13:48:10.802Z,20.80
2022-12-20T13:51:22.352Z,20.70
2022-12-20T13:54:27.293Z,20.50
2022-12-20T13:57:31.447Z,20.50
2022-12-20T14:00:35.712Z,20.30
2022-12-20T14:03:48.130Z,20.30
2022-12-20T14:06:58.295Z,20.30
2022-12-20T14:10:02.147Z,20.20
2022-12-20T14:13:17.995Z,20.20
2022-12-20T14:16:20.959Z,20.00
2022-12-20T14:19:23.124Z,19.80
2022-12-20T14:22:25.391Z,19.80
2022-12-20T14:25:37.253Z,19.90
2022-12-20T14:28:46.714Z,19.80
2022-12-20T14:31:49.206Z,19.90
2022-12-20T14:34:53.389Z,19.90
2022-12-20T14:38:04.981Z,20.00
2022-12-20T14:41:30.305Z,20.00
2022-12-20T14:44:33.001Z,20.00
2022-12-20T14:47:36.606Z,20.10
2022-12-20T14:50:43.054Z,20.10
2022-12-20T14:53:47.644Z,20.00
2022-12-20T14:56:52.047Z,19.90
2022-12-20T15:00:13.059Z,19.80
2022-12-20T15:03:19.982Z,19.80
2022-12-20T15:06:49.511Z,19.70
2022-12-20T15:09:51.594Z,19.70
2022-12-20T15:12:53.798Z,19.70
2022-12-20T15:15:56.083Z,19.60
2022-12-20T15:19:01.825Z,19.60
2022-12-20T15:22:04.132Z,19.60
2022-12-20T15:25:16.550Z,19.60
2022-12-20T15:28:22.349Z,19.50
2022-12-20T15:31:32.944Z,19.50
2022-12-20T15:34:37.990Z,19.40
2022-12-20T15:37:41.914Z,19.30
2022-12-20T15:40:46.167Z,19.10
2022-12-20T15:43:50.420Z,19.00
2022-12-20T15:46:55.072Z,19.00
2022-12-20T15:49:57.380Z,18.90
2022-12-20T15:52:59.587Z,18.90
2022-12-20T15:56:01.758Z,18.90
2022-12-20T15:59:24.363Z,18.90
2022-12-20T16:02:29.033Z,18.90
2022-12-20T16:05:31.475Z,18.80
2022-12-20T16:08:34.957Z,18.90
2022-12-20T16:11:37.239Z,18.80
2022-12-20T16:14:39.590Z,18.70
2022-12-20T16:17:42.559Z,18.80
2022-12-20T16:20:45.038Z,18.70
2022-12-20T16:23:47.509Z,18.60
2022-12-20T16:26:49.907Z,18.60
2022-12-20T16:29:52.051Z,18.50
2022-12-20T16:32:54.797Z,18.50
2022-12-20T16:35:57.025Z,18.50
2022-12-20T16:39:00.281Z,18.50
2022-12-20T16:42:02.423Z,18.50
2022-12-20T16:45:04.698Z,18.40
2022-12-20T16:48:06.990Z,18.40
2022-12-20T16:51:29.520Z,18.40
2022-12-20T16:54:32.254Z,18.30
2022-12-20T16:57:34.420Z,18.30
2022-12-20T17:00:37.500Z,18.30
2022-12-20T17:03:39.891Z,18.30
2022-12-20T17:06:43.114Z,18.10
2022-12-20T17:09:46.390Z,18.10
2022-12-20T17:12:49.076Z,18.10
2022-12-20T17:15:51.505Z,18.10
2022-12-20T17:18:55.804Z,18.00
2022-12-20T17:25:19.834Z,17.90
2022-12-20T17:28:22.182Z,17.90
2022-12-20T17:31:28.480Z,17.90
2022-12-20T17:34:31.629Z,17.80
2022-12-20T17:37:33.931Z,17.80
2022-12-20T17:40:36.459Z,17.80
2022-12-20T17:43:39.426Z,17.80
2022-12-20T17:46:42.436Z,17.70
2022-12-20T17:49:44.959Z,17.70
2022-12-20T17:52:47.680Z,17.60
2022-12-20T17:55:51.340Z,17.50
2022-12-20T17:58:54.711Z,17.50
2022-12-20T18:01:57.502Z,17.50
2022-12-20T18:04:59.844Z,17.40
2022-12-20T18:08:02.140Z,17.40
2022-12-20T18:11:04.250Z,17.40
2022-12-20T18:14:06.379Z,17.40
2022-12-20T18:17:08.585Z,17.40
2022-12-20T18:20:11.716Z,17.40
2022-12-20T18:23:14.107Z,17.40
2022-12-20T18:26:23.754Z,17.40
2022-12-20T18:29:26.167Z,17.40
2022-12-20T18:32:31.343Z,17.40
2022-12-20T18:35:33.799Z,17.30
2022-12-20T18:38:39.162Z,17.30
2022-12-20T18:41:43.114Z,17.30
2022-12-20T18:44:45.612Z,17.30
2022-12-20T18:47:47.811Z,17.20
2022-12-20T18:50:49.828Z,17.20
2022-12-20T18:53:55.341Z,17.10
2022-12-20T18:57:00.286Z,17.10
2022-12-20T19:00:05.767Z,17.10
2022-12-20T19:03:08.759Z,17.10
2022-12-20T19:06:11.637Z,17.00
2022-12-20T19:09:14.346Z,17.00
2022-12-20T19:12:16.502Z,17.00
2022-12-20T19:15:18.959Z,17.00
2022-12-20T19:18:21.153Z,16.90
2022-12-20T19:21:27.953Z,16.90
2022-12-20T19:24:30.138Z,16.90
2022-12-20T19:27:32.253Z,16.90
2022-12-20T19:30:35.975Z,16.90
2022-12-20T19:33:39.762Z,16.90
2022-12-20T19:36:46.510Z,17.00
2022-12-20T19:39:48.658Z,17.00
2022-12-20T19:42:51.616Z,17.00
2022-12-20T19:45:53.927Z,17.00
2022-12-20T19:48:57.601Z,17.00
2022-12-20T19:51:59.779Z,17.00
2022-12-20T19:55:02.027Z,17.00
2022-12-20T19:58:05.047Z,16.90
2022-12-20T20:01:08.951Z,16.90
2022-12-20T20:04:11.413Z,16.90
2022-12-20T20:07:13.797Z,16.80
2022-12-20T20:10:15.948Z,16.80
2022-12-20T20:13:18.090Z,16.80
2022-12-20T20:16:22.800Z,16.80
2022-12-20T20:19:25.179Z,16.80
2022-12-20T20:22:27.330Z,16.80
2022-12-20T20:25:29.423Z,16.80
2022-12-20T20:28:33.264Z,16.80
2022-12-20T20:31:38.610Z,16.80
2022-12-20T20:34:40.761Z,16.80
2022-12-20T20:37:42.928Z,16.80
2022-12-20T20:40:46.368Z,16.80
2022-12-20T20:43:49.350Z,16.80
2022-12-20T20:46:51.458Z,16.70
2022-12-20T20:49:53.757Z,16.70
2022-12-20T20:52:55.821Z,16.70
2022-12-20T20:55:58.019Z,16.80
2022-12-20T20:59:05.968Z,16.80
2022-12-20T21:02:14.418Z,16.80
2022-12-20T21:06:06.275Z,16.90
2022-12-20T21:08:40.082Z,16.90
2022-12-20T21:11:42.550Z,17.00
2022-12-20T21:15:20.869Z,17.00
2022-12-20T21:18:07.035Z,17.00
2022-12-20T21:21:11.232Z,17.00
2022-12-20T21:24:14.268Z,17.10
2022-12-20T21:27:16.794Z,17.10
2022-12-20T21:30:19.364Z,17.10
2022-12-20T21:33:22.479Z,17.10
2022-12-20T21:36:26.242Z,17.10
2022-12-20T21:39:28.366Z,17.10
2022-12-20T21:42:31.929Z,17.10
2022-12-20T21:45:34.483Z,17.10
2022-12-20T21:48:36.844Z,17.10
2022-12-20T21:51:38.888Z,17.00
2022-12-20T21:54:41.207Z,17.00
2022-12-20T21:57:44.223Z,16.90
2022-12-20T22:00:52.491Z,17.00
2022-12-20T22:04:02.947Z,16.90
2022-12-20T22:07:05.187Z,16.90
2022-12-20T22:10:08.219Z,16.90
2022-12-20T22:13:11.529Z,17.00
2022-12-20T22:16:21.195Z,17.00
2022-12-20T22:19:24.623Z,17.10
2022-12-20T22:22:27.015Z,17.10
2022-12-20T22:25:29.238Z,17.10
2022-12-20T22:28:31.586Z,17.10
2022-12-20T22:32:03.079Z,17.10
2022-12-20T22:35:05.913Z,17.20
2022-12-20T22:38:08.479Z,17.20
2022-12-20T22:41:14.705Z,17.20
2022-12-20T22:44:20.003Z,17.10
2022-12-20T22:47:22.057Z,17.20
2022-12-20T22:50:24.320Z,17.10
2022-12-20T22:53:26.804Z,17.10
2022-12-20T22:56:28.967Z,17.10
2022-12-20T22:59:33.684Z,17.10
2022-12-20T23:02:41.969Z,17.10
2022-12-20T23:05:53.248Z,17.10
2022-12-20T23:08:56.779Z,17.10
2022-12-20T23:12:17.574Z,17.10
2022-12-20T23:15:38.203Z,17.00
2022-12-20T23:18:40.461Z,17.00
2022-12-20T23:22:01.047Z,17.00
2022-12-20T23:25:04.563Z,16.90
2022-12-20T23:28:06.602Z,16.90
2022-12-20T23:31:09.974Z,16.90
2022-12-20T23:34:12.185Z,16.90
2022-12-20T23:37:14.679Z,16.90
2022-12-20T23:40:17.589Z,16.80
2022-12-20T23:43:19.921Z,16.80
2022-12-20T23:46:22.620Z,16.80
2022-12-20T23:49:24.903Z,16.80
2022-12-20T23:52:27.056Z,16.80
2022-12-20T23:55:29.387Z,16.80
2022-12-20T23:58:32.291Z,16.80
